sensor_id;sensor_type;location;lat;lon;timestamp;pressure;altitude;pressure_sealevel;temperature;humidity
21988;BME280;11158;53.404;-1.510;2022-09-21T00:00:38;101548.53;;;18.71;50.12
21988;BME280;11158;53.404;-1.510;2022-09-21T00:03:04;101549.78;;;18.62;50.47
21988;BME280;11158;53.404;-1.510;2022-09-21T00:05:31;101543.16;;;18.38;50.99
21988;BME280;11158;53.404;-1.510;2022-09-21T00:08:02;101552.50;;;18.55;50.89
21988;BME280;11158;53.404;-1.510;2022-09-21T00:10:29;101548.97;;;18.81;49.95
21988;BME280;11158;53.404;-1.510;2022-09-21T00:12:55;101553.13;;;18.84;50.12
21988;BME280;11158;53.404;-1.510;2022-09-21T00:15:22;101554.13;;;19.10;49.71
21988;BME280;11158;53.404;-1.510;2022-09-21T00:17:52;101548.44;;;19.24;49.27
21988;BME280;11158;53.404;-1.510;2022-09-21T00:20:19;101550.09;;;19.25;49.07
21988;BME280;11158;53.404;-1.510;2022-09-21T00:22:47;101555.50;;;19.32;49.15
21988;BME280;11158;53.404;-1.510;2022-09-21T00:25:13;101561.97;;;19.38;49.03
21988;BME280;11158;53.404;-1.510;2022-09-21T00:27:40;101553.91;;;19.18;49.22
21988;BME280;11158;53.404;-1.510;2022-09-21T00:30:06;101557.00;;;19.21;49.35
21988;BME280;11158;53.404;-1.510;2022-09-21T00:32:34;101555.94;;;19.29;48.88
21988;BME280;11158;53.404;-1.510;2022-09-21T00:35:00;101552.31;;;18.83;50.12
21988;BME280;11158;53.404;-1.510;2022-09-21T00:37:28;101551.22;;;19.04;49.85
21988;BME280;11158;53.404;-1.510;2022-09-21T00:39:54;101558.50;;;19.11;49.63
21988;BME280;11158;53.404;-1.510;2022-09-21T00:42:30;101551.69;;;18.81;50.48
21988;BME280;11158;53.404;-1.510;2022-09-21T00:44:56;101557.09;;;18.88;50.41
21988;BME280;11158;53.404;-1.510;2022-09-21T00:47:27;101552.28;;;18.70;51.08
21988;BME280;11158;53.404;-1.510;2022-09-21T00:49:55;101553.13;;;18.91;50.52
21988;BME280;11158;53.404;-1.510;2022-09-21T00:52:24;101549.19;;;18.80;50.86
21988;BME280;11158;53.404;-1.510;2022-09-21T00:54:55;101545.00;;;18.97;50.47
21988;BME280;11158;53.404;-1.510;2022-09-21T00:57:25;101544.31;;;19.15;49.69
21988;BME280;11158;53.404;-1.510;2022-09-21T00:59:55;101549.97;;;19.07;49.69
21988;BME280;11158;53.404;-1.510;2022-09-21T01:02:21;101557.31;;;18.40;51.93
21988;BME280;11158;53.404;-1.510;2022-09-21T01:04:47;101549.78;;;18.55;51.97
21988;BME280;11158;53.404;-1.510;2022-09-21T01:07:17;101550.03;;;18.60;51.78
21988;BME280;11158;53.404;-1.510;2022-09-21T01:09:48;101542.31;;;18.44;52.04
21988;BME280;11158;53.404;-1.510;2022-09-21T01:15:17;101543.94;;;18.85;51.28
21988;BME280;11158;53.404;-1.510;2022-09-21T01:31:10;101537.19;;;19.21;49.98
21988;BME280;11158;53.404;-1.510;2022-09-21T01:33:44;101536.34;;;19.27;49.75
21988;BME280;11158;53.404;-1.510;2022-09-21T01:36:14;101533.47;;;19.22;49.85
21988;BME280;11158;53.404;-1.510;2022-09-21T01:38:44;101532.56;;;19.28;49.59
21988;BME280;11158;53.404;-1.510;2022-09-21T01:41:17;101528.69;;;19.17;49.66
21988;BME280;11158;53.404;-1.510;2022-09-21T01:43:49;101530.97;;;19.14;49.96
21988;BME280;11158;53.404;-1.510;2022-09-21T01:46:18;101524.31;;;19.03;50.07
21988;BME280;11158;53.404;-1.510;2022-09-21T01:48:49;101518.31;;;18.94;49.96
21988;BME280;11158;53.404;-1.510;2022-09-21T01:51:18;101521.25;;;18.59;51.38
21988;BME280;11158;53.404;-1.510;2022-09-21T01:53:49;101517.75;;;18.19;52.33
21988;BME280;11158;53.404;-1.510;2022-09-21T01:56:22;101520.84;;;18.09;52.70
21988;BME280;11158;53.404;-1.510;2022-09-21T02:01:29;101512.31;;;18.39;52.18
21988;BME280;11158;53.404;-1.510;2022-09-21T02:04:02;101507.72;;;18.66;51.84
21988;BME280;11158;53.404;-1.510;2022-09-21T02:06:30;101506.06;;;18.78;51.00
21988;BME280;11158;53.404;-1.510;2022-09-21T02:08:56;101508.53;;;18.73;51.07
21988;BME280;11158;53.404;-1.510;2022-09-21T02:11:22;101512.31;;;18.52;51.52
21988;BME280;11158;53.404;-1.510;2022-09-21T02:13:51;101508.16;;;18.50;51.77
21988;BME280;11158;53.404;-1.510;2022-09-21T02:16:33;101500.28;;;18.35;51.93
21988;BME280;11158;53.404;-1.510;2022-09-21T02:27:04;101500.66;;;18.18;52.59
21988;BME280;11158;53.404;-1.510;2022-09-21T02:35:02;101494.00;;;17.94;53.43
21988;BME280;11158;53.404;-1.510;2022-09-21T02:42:41;101491.59;;;17.45;54.23
21988;BME280;11158;53.404;-1.510;2022-09-21T02:45:19;101496.59;;;17.48;54.34
21988;BME280;11158;53.404;-1.510;2022-09-21T02:47:53;101500.16;;;17.68;54.14
21988;BME280;11158;53.404;-1.510;2022-09-21T02:50:34;101493.09;;;17.67;53.88
21988;BME280;11158;53.404;-1.510;2022-09-21T02:53:04;101489.78;;;17.78;53.29
21988;BME280;11158;53.404;-1.510;2022-09-21T02:55:32;101489.00;;;17.85;53.52
21988;BME280;11158;53.404;-1.510;2022-09-21T02:58:02;101488.78;;;17.86;53.56
21988;BME280;11158;53.404;-1.510;2022-09-21T03:00:30;101486.47;;;17.76;53.43
21988;BME280;11158;53.404;-1.510;2022-09-21T03:02:56;101480.28;;;17.83;53.25
21988;BME280;11158;53.404;-1.510;2022-09-21T03:05:22;101484.34;;;17.65;53.76
21988;BME280;11158;53.404;-1.510;2022-09-21T03:07:48;101483.06;;;17.41;54.19
21988;BME280;11158;53.404;-1.510;2022-09-21T03:10:14;101475.09;;;17.26;54.50
21988;BME280;11158;53.404;-1.510;2022-09-21T03:12:39;101481.63;;;16.97;55.67
21988;BME280;11158;53.404;-1.510;2022-09-21T03:15:10;101479.69;;;16.49;56.92
21988;BME280;11158;53.404;-1.510;2022-09-21T03:17:36;101479.69;;;16.49;57.01
21988;BME280;11158;53.404;-1.510;2022-09-21T03:20:02;101479.88;;;16.20;58.14
21988;BME280;11158;53.404;-1.510;2022-09-21T03:22:27;101474.31;;;16.28;57.71
21988;BME280;11158;53.404;-1.510;2022-09-21T03:24:53;101475.19;;;16.35;57.20
21988;BME280;11158;53.404;-1.510;2022-09-21T03:27:22;101476.63;;;16.31;57.52
21988;BME280;11158;53.404;-1.510;2022-09-21T03:29:48;101482.50;;;16.41;57.10
21988;BME280;11158;53.404;-1.510;2022-09-21T03:32:14;101488.44;;;16.30;57.49
21988;BME280;11158;53.404;-1.510;2022-09-21T03:34:40;101482.31;;;15.93;58.31
21988;BME280;11158;53.404;-1.510;2022-09-21T03:37:07;101472.94;;;16.39;57.27
21988;BME280;11158;53.404;-1.510;2022-09-21T03:39:33;101466.31;;;16.41;56.67
21988;BME280;11158;53.404;-1.510;2022-09-21T03:41:59;101465.72;;;16.46;56.52
21988;BME280;11158;53.404;-1.510;2022-09-21T03:44:27;101478.88;;;16.90;55.45
21988;BME280;11158;53.404;-1.510;2022-09-21T03:46:52;101471.38;;;17.27;54.34
21988;BME280;11158;53.404;-1.510;2022-09-21T03:49:18;101473.75;;;17.57;53.23
21988;BME280;11158;53.404;-1.510;2022-09-21T03:51:44;101465.66;;;17.70;52.96
21988;BME280;11158;53.404;-1.510;2022-09-21T03:54:10;101462.94;;;17.57;53.14
21988;BME280;11158;53.404;-1.510;2022-09-21T03:56:36;101465.41;;;17.38;53.43
21988;BME280;11158;53.404;-1.510;2022-09-21T03:59:03;101468.94;;;17.46;53.20
21988;BME280;11158;53.404;-1.510;2022-09-21T04:01:32;101461.41;;;17.28;53.60
21988;BME280;11158;53.404;-1.510;2022-09-21T04:04:01;101465.72;;;17.09;53.70
21988;BME280;11158;53.404;-1.510;2022-09-21T04:06:31;101468.41;;;17.09;54.01
21988;BME280;11158;53.404;-1.510;2022-09-21T04:08:58;101466.88;;;16.65;55.46
21988;BME280;11158;53.404;-1.510;2022-09-21T04:11:27;101464.31;;;16.50;56.08
21988;BME280;11158;53.404;-1.510;2022-09-21T04:13:53;101462.56;;;16.42;55.80
21988;BME280;11158;53.404;-1.510;2022-09-21T04:16:26;101454.78;;;16.54;55.33
21988;BME280;11158;53.404;-1.510;2022-09-21T04:18:52;101449.50;;;16.74;54.90
21988;BME280;11158;53.404;-1.510;2022-09-21T04:21:18;101447.34;;;16.63;55.33
21988;BME280;11158;53.404;-1.510;2022-09-21T04:23:44;101445.19;;;16.51;55.61
21988;BME280;11158;53.404;-1.510;2022-09-21T04:26:31;101442.44;;;16.73;55.77
21988;BME280;11158;53.404;-1.510;2022-09-21T04:28:57;101445.31;;;17.00;54.10
21988;BME280;11158;53.404;-1.510;2022-09-21T04:31:24;101455.50;;;17.11;54.20
21988;BME280;11158;53.404;-1.510;2022-09-21T04:33:52;101446.81;;;17.22;53.80
21988;BME280;11158;53.404;-1.510;2022-09-21T04:36:19;101447.94;;;17.41;53.04
21988;BME280;11158;53.404;-1.510;2022-09-21T04:38:46;101443.75;;;17.45;52.94
21988;BME280;11158;53.404;-1.510;2022-09-21T04:41:12;101451.50;;;17.55;52.88
21988;BME280;11158;53.404;-1.510;2022-09-21T04:43:40;101445.66;;;17.58;52.72
21988;BME280;11158;53.404;-1.510;2022-09-21T04:46:08;101444.03;;;17.57;52.42
21988;BME280;11158;53.404;-1.510;2022-09-21T04:48:35;101447.66;;;17.29;53.30
21988;BME280;11158;53.404;-1.510;2022-09-21T04:51:01;101450.16;;;17.24;53.50
21988;BME280;11158;53.404;-1.510;2022-09-21T04:53:29;101456.00;;;17.28;53.19
21988;BME280;11158;53.404;-1.510;2022-09-21T04:55:55;101455.19;;;17.47;52.83
21988;BME280;11158;53.404;-1.510;2022-09-21T04:58:22;101449.59;;;17.49;52.37
21988;BME280;11158;53.404;-1.510;2022-09-21T05:00:51;101461.16;;;17.16;53.41
21988;BME280;11158;53.404;-1.510;2022-09-21T05:03:21;101454.91;;;17.22;53.29
21988;BME280;11158;53.404;-1.510;2022-09-21T05:05:49;101456.81;;;17.28;53.26
21988;BME280;11158;53.404;-1.510;2022-09-21T05:08:16;101455.19;;;17.47;52.93
21988;BME280;11158;53.404;-1.510;2022-09-21T05:10:43;101447.78;;;17.76;52.20
21988;BME280;11158;53.404;-1.510;2022-09-21T05:13:09;101450.41;;;17.43;52.94
21988;BME280;11158;53.404;-1.510;2022-09-21T05:15:38;101443.41;;;17.62;52.35
21988;BME280;11158;53.404;-1.510;2022-09-21T05:18:04;101442.81;;;17.93;51.46
21988;BME280;11158;53.404;-1.510;2022-09-21T05:20:30;101446.34;;;18.00;51.40
21988;BME280;11158;53.404;-1.510;2022-09-21T05:22:59;101452.19;;;18.10;51.36
21988;BME280;11158;53.404;-1.510;2022-09-21T05:25:26;101446.59;;;18.05;51.54
21988;BME280;11158;53.404;-1.510;2022-09-21T05:27:51;101445.72;;;17.78;51.83
21988;BME280;11158;53.404;-1.510;2022-09-21T05:30:17;101440.03;;;17.46;52.46
21988;BME280;11158;53.404;-1.510;2022-09-21T05:33:01;101438.53;;;17.30;53.47
21988;BME280;11158;53.404;-1.510;2022-09-21T05:35:53;101448.75;;;17.42;53.42
21988;BME280;11158;53.404;-1.510;2022-09-21T05:38:23;101442.56;;;17.48;52.88
21988;BME280;11158;53.404;-1.510;2022-09-21T05:40:49;101449.03;;;17.67;52.20
21988;BME280;11158;53.404;-1.510;2022-09-21T05:43:15;101447.59;;;17.97;51.63
21988;BME280;11158;53.404;-1.510;2022-09-21T05:45:44;101444.91;;;18.04;51.35
21988;BME280;11158;53.404;-1.510;2022-09-21T05:48:16;101449.25;;;18.18;51.35
21988;BME280;11158;53.404;-1.510;2022-09-21T05:53:37;101455.25;;;17.67;52.30
21988;BME280;11158;53.404;-1.510;2022-09-21T05:56:23;101464.56;;;17.51;53.34
21988;BME280;11158;53.404;-1.510;2022-09-21T06:02:42;101460.31;;;18.24;51.60
21988;BME280;11158;53.404;-1.510;2022-09-21T06:04:35;101459.00;;;18.46;50.40
21988;BME280;11158;53.404;-1.510;2022-09-21T06:07:01;101457.38;;;18.32;50.91
21988;BME280;11158;53.404;-1.510;2022-09-21T06:09:27;101464.41;;;18.53;50.38
21988;BME280;11158;53.404;-1.510;2022-09-21T06:11:52;101458.38;;;18.57;50.29
21988;BME280;11158;53.404;-1.510;2022-09-21T06:14:18;101458.97;;;18.79;50.14
21988;BME280;11158;53.404;-1.510;2022-09-21T06:16:50;101462.75;;;18.78;50.08
21988;BME280;11158;53.404;-1.510;2022-09-21T06:19:16;101464.38;;;18.73;50.34
21988;BME280;11158;53.404;-1.510;2022-09-21T06:21:42;101467.53;;;18.63;50.60
21988;BME280;11158;53.404;-1.510;2022-09-21T06:24:08;101464.38;;;18.73;49.86
21988;BME280;11158;53.404;-1.510;2022-09-21T06:26:33;101470.03;;;18.65;50.72
21988;BME280;11158;53.404;-1.510;2022-09-21T06:28:59;101465.63;;;18.83;50.19
21988;BME280;11158;53.404;-1.510;2022-09-21T06:31:26;101470.81;;;18.92;50.12
21988;BME280;11158;53.404;-1.510;2022-09-21T06:33:52;101467.25;;;18.98;49.77
21988;BME280;11158;53.404;-1.510;2022-09-21T06:36:18;101472.88;;;18.90;50.00
21988;BME280;11158;53.404;-1.510;2022-09-21T06:38:44;101469.19;;;18.77;50.30
21988;BME280;11158;53.404;-1.510;2022-09-21T06:41:10;101464.38;;;18.79;50.03
21988;BME280;11158;53.404;-1.510;2022-09-21T06:43:36;101470.63;;;18.67;50.30
21988;BME280;11158;53.404;-1.510;2022-09-21T06:46:02;101466.91;;;18.54;50.88
21988;BME280;11158;53.404;-1.510;2022-09-21T06:48:29;101464.84;;;18.56;50.53
21988;BME280;11158;53.404;-1.510;2022-09-21T06:51:04;101463.38;;;18.60;50.70
21988;BME280;11158;53.404;-1.510;2022-09-21T06:53:31;101467.31;;;18.78;50.49
21988;BME280;11158;53.404;-1.510;2022-09-21T06:56:06;101464.81;;;18.83;50.07
21988;BME280;11158;53.404;-1.510;2022-09-21T06:58:32;101471.06;;;18.77;50.38
21988;BME280;11158;53.404;-1.510;2022-09-21T07:01:08;101475.56;;;18.96;49.94
21988;BME280;11158;53.404;-1.510;2022-09-21T07:03:35;101463.41;;;19.19;49.10
21988;BME280;11158;53.404;-1.510;2022-09-21T07:06:01;101468.41;;;19.22;49.10
21988;BME280;11158;53.404;-1.510;2022-09-21T07:08:26;101461.69;;;19.31;48.89
21988;BME280;11158;53.404;-1.510;2022-09-21T07:10:52;101470.16;;;19.41;48.92
21988;BME280;11158;53.404;-1.510;2022-09-21T07:13:18;101462.91;;;19.35;48.89
21988;BME280;11158;53.404;-1.510;2022-09-21T07:15:44;101459.31;;;19.41;48.97
21988;BME280;11158;53.404;-1.510;2022-09-21T07:18:12;101457.81;;;19.52;48.60
21988;BME280;11158;53.404;-1.510;2022-09-21T07:20:41;101458.63;;;19.53;48.81
21988;BME280;11158;53.404;-1.510;2022-09-21T07:23:14;101453.66;;;19.50;48.78
21988;BME280;11158;53.404;-1.510;2022-09-21T07:25:46;101452.53;;;19.64;48.54
21988;BME280;11158;53.404;-1.510;2022-09-21T07:28:18;101445.81;;;19.73;48.40
21988;BME280;11158;53.404;-1.510;2022-09-21T07:30:44;101448.25;;;19.81;47.92
21988;BME280;11158;53.404;-1.510;2022-09-21T07:33:10;101450.97;;;19.81;47.89
21988;BME280;11158;53.404;-1.510;2022-09-21T07:35:36;101452.56;;;19.89;47.81
21988;BME280;11158;53.404;-1.510;2022-09-21T07:38:05;101450.47;;;19.91;47.54
21988;BME280;11158;53.404;-1.510;2022-09-21T07:40:33;101443.78;;;19.94;47.55
21988;BME280;11158;53.404;-1.510;2022-09-21T07:43:00;101439.56;;;19.98;47.50
21988;BME280;11158;53.404;-1.510;2022-09-21T07:45:29;101447.09;;;19.96;47.45
21988;BME280;11158;53.404;-1.510;2022-09-21T07:48:02;101446.59;;;20.05;47.08
21988;BME280;11158;53.404;-1.510;2022-09-21T07:50:28;101442.56;;;20.15;47.17
21988;BME280;11158;53.404;-1.510;2022-09-21T07:52:53;101443.81;;;20.12;47.10
21988;BME280;11158;53.404;-1.510;2022-09-21T07:55:19;101444.44;;;20.14;47.15
21988;BME280;11158;53.404;-1.510;2022-09-21T07:57:48;101446.59;;;20.05;47.47
21988;BME280;11158;53.404;-1.510;2022-09-21T08:00:32;101442.88;;;20.25;47.33
21988;BME280;11158;53.404;-1.510;2022-09-21T08:02:59;101443.47;;;20.27;47.27
21988;BME280;11158;53.404;-1.510;2022-09-21T08:05:26;101441.69;;;20.39;47.34
21988;BME280;11158;53.404;-1.510;2022-09-21T08:07:55;101438.34;;;19.94;47.90
21988;BME280;11158;53.404;-1.510;2022-09-21T08:10:22;101437.66;;;20.23;47.97
21988;BME280;11158;53.404;-1.510;2022-09-21T08:12:48;101434.19;;;20.78;46.89
21988;BME280;11158;53.404;-1.510;2022-09-21T08:15:14;101424.59;;;20.94;46.37
21988;BME280;11158;53.404;-1.510;2022-09-21T08:17:40;101430.66;;;21.26;45.94
21988;BME280;11158;53.404;-1.510;2022-09-21T08:20:06;101427.53;;;21.41;45.81
21988;BME280;11158;53.404;-1.510;2022-09-21T08:22:32;101435.63;;;21.60;45.39
21988;BME280;11158;53.404;-1.510;2022-09-21T08:24:57;101436.44;;;21.30;45.25
21988;BME280;11158;53.404;-1.510;2022-09-21T08:27:23;101436.94;;;21.69;44.49
21988;BME280;11158;53.404;-1.510;2022-09-21T08:29:51;101428.25;;;22.02;43.84
21988;BME280;11158;53.404;-1.510;2022-09-21T08:32:17;101433.50;;;22.27;42.68
21988;BME280;11158;53.404;-1.510;2022-09-21T08:34:43;101424.84;;;22.42;42.43
21988;BME280;11158;53.404;-1.510;2022-09-21T08:37:08;101432.56;;;22.33;42.04
21988;BME280;11158;53.404;-1.510;2022-09-21T08:39:34;101437.84;;;22.05;42.06
21988;BME280;11158;53.404;-1.510;2022-09-21T08:44:54;101439.97;;;22.03;42.04
21988;BME280;11158;53.404;-1.510;2022-09-21T08:52:57;101449.50;;;20.29;44.59
21988;BME280;11158;53.404;-1.510;2022-09-21T08:55:24;101443.75;;;20.44;44.63
21988;BME280;11158;53.404;-1.510;2022-09-21T08:57:51;101440.69;;;20.59;44.36
21988;BME280;11158;53.404;-1.510;2022-09-21T09:00:18;101442.97;;;20.37;44.74
21988;BME280;11158;53.404;-1.510;2022-09-21T09:08:18;101456.91;;;19.58;45.91
21988;BME280;11158;53.404;-1.510;2022-09-21T09:14:00;101448.56;;;19.60;46.23
21988;BME280;11158;53.404;-1.510;2022-09-21T09:19:50;101442.53;;;18.81;47.99
21988;BME280;11158;53.404;-1.510;2022-09-21T09:22:26;101446.94;;;19.59;46.65
21988;BME280;11158;53.404;-1.510;2022-09-21T09:24:54;101443.06;;;19.80;46.27
21988;BME280;11158;53.404;-1.510;2022-09-21T09:27:29;101436.66;;;20.80;44.53
21988;BME280;11158;53.404;-1.510;2022-09-21T09:30:08;101440.16;;;20.68;43.82
21988;BME280;11158;53.404;-1.510;2022-09-21T09:36:03;101443.66;;;20.07;44.48
21988;BME280;11158;53.404;-1.510;2022-09-21T09:38:40;101448.13;;;19.63;44.97
21988;BME280;11158;53.404;-1.510;2022-09-21T09:47:12;101443.25;;;19.78;44.78
21988;BME280;11158;53.404;-1.510;2022-09-21T09:52:48;101439.53;;;20.04;43.90
21988;BME280;11158;53.404;-1.510;2022-09-21T09:55:26;101441.16;;;20.05;44.28
21988;BME280;11158;53.404;-1.510;2022-09-21T09:57:58;101437.94;;;19.90;44.13
21988;BME280;11158;53.404;-1.510;2022-09-21T10:00:24;101436.41;;;20.01;44.54
21988;BME280;11158;53.404;-1.510;2022-09-21T10:02:53;101430.41;;;20.98;42.38
21988;BME280;11158;53.404;-1.510;2022-09-21T10:05:30;101436.31;;;20.76;43.00
21988;BME280;11158;53.404;-1.510;2022-09-21T10:07:56;101434.88;;;20.92;42.76
21988;BME280;11158;53.404;-1.510;2022-09-21T10:15:41;101423.88;;;20.68;42.53
21988;BME280;11158;53.404;-1.510;2022-09-21T10:18:53;101418.97;;;21.26;41.51
21988;BME280;11158;53.404;-1.510;2022-09-21T10:21:22;101422.63;;;21.31;40.61
21988;BME280;11158;53.404;-1.510;2022-09-21T10:23:51;101419.06;;;21.19;40.13
21988;BME280;11158;53.404;-1.510;2022-09-21T10:26:19;101416.94;;;21.21;40.04
21988;BME280;11158;53.404;-1.510;2022-09-21T10:29:01;101417.31;;;21.67;38.55
21988;BME280;11158;53.404;-1.510;2022-09-21T10:31:29;101406.00;;;22.05;37.52
21988;BME280;11158;53.404;-1.510;2022-09-21T10:34:13;101417.88;;;21.27;39.17
21988;BME280;11158;53.404;-1.510;2022-09-21T10:36:39;101413.81;;;22.13;37.49
21988;BME280;11158;53.404;-1.510;2022-09-21T10:42:13;101408.47;;;22.54;37.04
21988;BME280;11158;53.404;-1.510;2022-09-21T10:50:03;101401.09;;;23.18;35.13
21988;BME280;11158;53.404;-1.510;2022-09-21T10:52:39;101396.31;;;23.26;34.87
21988;BME280;11158;53.404;-1.510;2022-09-21T10:55:15;101397.41;;;23.58;34.21
21988;BME280;11158;53.404;-1.510;2022-09-21T10:57:41;101392.09;;;23.80;33.78
21988;BME280;11158;53.404;-1.510;2022-09-21T11:02:46;101380.19;;;24.25;31.75
21988;BME280;11158;53.404;-1.510;2022-09-21T11:05:22;101391.00;;;23.65;32.90
21988;BME280;11158;53.404;-1.510;2022-09-21T11:10:47;101384.78;;;22.66;33.79
21988;BME280;11158;53.404;-1.510;2022-09-21T11:16:15;101390.47;;;21.82;34.40
21988;BME280;11158;53.404;-1.510;2022-09-21T11:21:34;101380.09;;;21.79;34.05
21988;BME280;11158;53.404;-1.510;2022-09-21T11:27:19;101380.06;;;22.50;33.41
21988;BME280;11158;53.404;-1.510;2022-09-21T11:30:02;101375.34;;;21.86;34.19
21988;BME280;11158;53.404;-1.510;2022-09-21T11:32:42;101373.22;;;21.65;34.33
21988;BME280;11158;53.404;-1.510;2022-09-21T12:00:09;101355.38;;;21.92;33.34
21988;BME280;11158;53.404;-1.510;2022-09-21T12:05:31;101365.75;;;21.72;33.75
21988;BME280;11158;53.404;-1.510;2022-09-21T12:16:09;101351.31;;;22.83;32.95
21988;BME280;11158;53.404;-1.510;2022-09-21T12:21:20;101343.44;;;23.94;30.78
21988;BME280;11158;53.404;-1.510;2022-09-21T12:23:56;101341.75;;;23.93;30.37
21988;BME280;11158;53.404;-1.510;2022-09-21T12:26:31;101336.88;;;24.34;29.94
21988;BME280;11158;53.404;-1.510;2022-09-21T12:29:05;101338.75;;;24.51;29.81
21988;BME280;11158;53.404;-1.510;2022-09-21T12:34:46;101325.47;;;23.98;30.76
21988;BME280;11158;53.404;-1.510;2022-09-21T12:37:30;101331.22;;;24.41;29.31
21988;BME280;11158;53.404;-1.510;2022-09-21T12:40:15;101342.00;;;23.24;30.61
21988;BME280;11158;53.404;-1.510;2022-09-21T12:42:57;101333.03;;;23.57;30.52
21988;BME280;11158;53.404;-1.510;2022-09-21T12:45:31;101329.72;;;22.81;32.34
21988;BME280;11158;53.404;-1.510;2022-09-21T12:53:13;101313.59;;;23.88;31.04
21988;BME280;11158;53.404;-1.510;2022-09-21T12:55:49;101323.53;;;22.86;32.68
21988;BME280;11158;53.404;-1.510;2022-09-21T13:09:13;101299.00;;;23.99;31.16
21988;BME280;11158;53.404;-1.510;2022-09-21T13:11:54;101300.91;;;24.64;30.55
21988;BME280;11158;53.404;-1.510;2022-09-21T13:14:27;101294.06;;;23.79;31.99
21988;BME280;11158;53.404;-1.510;2022-09-21T13:16:57;101302.97;;;22.78;33.41
21988;BME280;11158;53.404;-1.510;2022-09-21T13:19:27;101302.31;;;22.71;33.67
21988;BME280;11158;53.404;-1.510;2022-09-21T13:22:32;101294.53;;;22.51;34.31
21988;BME280;11158;53.404;-1.510;2022-09-21T13:30:37;101289.53;;;23.34;33.50
21988;BME280;11158;53.404;-1.510;2022-09-21T13:44:01;101274.84;;;23.91;33.09
21988;BME280;11158;53.404;-1.510;2022-09-21T13:49:04;101288.78;;;23.21;33.72
21988;BME280;11158;53.404;-1.510;2022-09-21T13:57:26;101273.25;;;23.22;34.19
21988;BME280;11158;53.404;-1.510;2022-09-21T14:00:27;101272.47;;;23.77;33.75
21988;BME280;11158;53.404;-1.510;2022-09-21T14:08:51;101272.75;;;23.42;33.25
21988;BME280;11158;53.404;-1.510;2022-09-21T14:10:57;101271.94;;;23.41;33.94
21988;BME280;11158;53.404;-1.510;2022-09-21T14:27:26;101259.03;;;23.03;32.90
21988;BME280;11158;53.404;-1.510;2022-09-21T14:32:32;101252.22;;;22.89;33.21
21988;BME280;11158;53.404;-1.510;2022-09-21T14:35:05;101252.69;;;22.86;33.22
21988;BME280;11158;53.404;-1.510;2022-09-21T14:37:47;101253.34;;;23.05;33.63
21988;BME280;11158;53.404;-1.510;2022-09-21T14:40:21;101243.84;;;23.07;33.52
21988;BME280;11158;53.404;-1.510;2022-09-21T14:42:49;101251.25;;;23.29;32.99
21988;BME280;11158;53.404;-1.510;2022-09-21T14:45:17;101232.53;;;23.54;32.83
21988;BME280;11158;53.404;-1.510;2022-09-21T14:50:48;101240.88;;;23.81;32.50
21988;BME280;11158;53.404;-1.510;2022-09-21T15:07:30;101226.75;;;22.83;34.17
21988;BME280;11158;53.404;-1.510;2022-09-21T15:13:21;101225.06;;;23.11;33.80
21988;BME280;11158;53.404;-1.510;2022-09-21T15:15:57;101220.19;;;23.30;33.70
21988;BME280;11158;53.404;-1.510;2022-09-21T15:18:25;101214.09;;;23.78;33.47
21988;BME280;11158;53.404;-1.510;2022-09-21T15:20:59;101204.16;;;23.72;32.67
21988;BME280;11158;53.404;-1.510;2022-09-21T15:23:47;101218.03;;;23.15;33.42
21988;BME280;11158;53.404;-1.510;2022-09-21T15:26:26;101212.75;;;23.42;33.47
21988;BME280;11158;53.404;-1.510;2022-09-21T15:28:57;101205.34;;;23.76;32.96
21988;BME280;11158;53.404;-1.510;2022-09-21T15:31:23;101197.31;;;24.14;31.99
21988;BME280;11158;53.404;-1.510;2022-09-21T15:33:51;101204.50;;;24.20;32.37
21988;BME280;11158;53.404;-1.510;2022-09-21T15:36:24;101198.44;;;23.74;32.62
21988;BME280;11158;53.404;-1.510;2022-09-21T15:38:54;101202.34;;;23.78;32.71
21988;BME280;11158;53.404;-1.510;2022-09-21T15:41:44;101201.94;;;23.13;34.24
21988;BME280;11158;53.404;-1.510;2022-09-21T15:44:20;101199.88;;;23.20;33.68
21988;BME280;11158;53.404;-1.510;2022-09-21T15:46:50;101192.19;;;23.17;33.81
21988;BME280;11158;53.404;-1.510;2022-09-21T15:49:19;101192.75;;;23.19;34.58
21988;BME280;11158;53.404;-1.510;2022-09-21T15:51:57;101200.44;;;23.61;33.76
21988;BME280;11158;53.404;-1.510;2022-09-21T15:57:00;101200.66;;;23.38;33.86
21988;BME280;11158;53.404;-1.510;2022-09-21T15:59:28;101190.63;;;23.21;34.11
21988;BME280;11158;53.404;-1.510;2022-09-21T16:01:57;101192.84;;;23.63;33.98
21988;BME280;11158;53.404;-1.510;2022-09-21T16:04:26;101186.81;;;23.78;33.49
21988;BME280;11158;53.404;-1.510;2022-09-21T16:07:00;101188.31;;;23.52;33.39
21988;BME280;11158;53.404;-1.510;2022-09-21T16:09:44;101192.84;;;23.08;34.56
21988;BME280;11158;53.404;-1.510;2022-09-21T16:15:14;101186.56;;;23.63;33.65
21988;BME280;11158;53.404;-1.510;2022-09-21T16:17:56;101176.63;;;23.74;33.07
21988;BME280;11158;53.404;-1.510;2022-09-21T16:20:25;101180.41;;;23.73;33.97
21988;BME280;11158;53.404;-1.510;2022-09-21T16:23:11;101174.94;;;23.51;33.98
21988;BME280;11158;53.404;-1.510;2022-09-21T16:25:38;101177.84;;;23.44;34.53
21988;BME280;11158;53.404;-1.510;2022-09-21T16:30:46;101171.91;;;22.96;34.68
21988;BME280;11158;53.404;-1.510;2022-09-21T16:33:36;101166.31;;;23.20;34.26
21988;BME280;11158;53.404;-1.510;2022-09-21T16:38:52;101165.38;;;22.97;35.17
21988;BME280;11158;53.404;-1.510;2022-09-21T16:41:18;101170.16;;;23.02;34.83
21988;BME280;11158;53.404;-1.510;2022-09-21T16:43:46;101169.56;;;23.00;35.02
21988;BME280;11158;53.404;-1.510;2022-09-21T16:46:12;101168.34;;;22.45;35.88
21988;BME280;11158;53.404;-1.510;2022-09-21T16:48:38;101179.84;;;22.64;35.24
21988;BME280;11158;53.404;-1.510;2022-09-21T16:51:15;101178.38;;;21.75;36.11
21988;BME280;11158;53.404;-1.510;2022-09-21T16:53:46;101190.22;;;21.22;37.29
21988;BME280;11158;53.404;-1.510;2022-09-21T16:56:13;101181.69;;;21.19;38.09